Bloomingville, Ohio
Current Conditions -  °F | °C
As of 9:12 PM on Monday 22 Dec 2014 (Local Time) from KPCW Reporting Station
Clear Clear  
Wind Chill: 32°   Ceiling: Unl
Heat Index: 39°   Visibility: 10mi
Dew Point: 32°   Wind: 10mph
Humidity: 75%   Direction: 110°ESE
Pressure: 29.85"   Gusts: NA
Location:  41.4028°N, 82.7181°W
Report Text: KPCW 230212Z AUTO 11009KT 10SM CLR 04/00 A2985 RMK AO2 $
Loading
Personal Weather Stations






























Interactive Weather Map New forecast layout! Learn more

10-Day Weather Forecast

Advertisements
Track Severe Weather on mobile